sensor_id;sensor_type;location;lat;lon;timestamp;pressure;altitude;pressure_sealevel;temperature;humidity
60170;BME280;46042;49.444;6.862;2023-04-01T00:01:13;97094.50;;;7.76;100.00
60170;BME280;46042;49.444;6.862;2023-04-01T00:03:40;97091.78;;;7.77;100.00
60170;BME280;46042;49.444;6.862;2023-04-01T00:06:08;97086.09;;;7.72;100.00
60170;BME280;46042;49.444;6.862;2023-04-01T00:08:35;97106.09;;;7.73;100.00
60170;BME280;46042;49.444;6.862;2023-04-01T00:11:02;97092.28;;;7.71;100.00
60170;BME280;46042;49.444;6.862;2023-04-01T00:13:29;97097.16;;;7.64;100.00
60170;BME280;46042;49.444;6.862;2023-04-01T00:15:56;97095.63;;;7.62;100.00
60170;BME280;46042;49.444;6.862;2023-04-01T00:18:25;97091.31;;;7.61;100.00
60170;BME280;46042;49.444;6.862;2023-04-01T00:20:52;97101.81;;;7.61;100.00
60170;BME280;46042;49.444;6.862;2023-04-01T00:23:20;97096.47;;;7.51;100.00
60170;BME280;46042;49.444;6.862;2023-04-01T00:25:48;97094.34;;;7.45;100.00
60170;BME280;46042;49.444;6.862;2023-04-01T00:28:18;97095.25;;;7.44;100.00
60170;BME280;46042;49.444;6.862;2023-04-01T00:30:45;97083.50;;;7.38;100.00
60170;BME280;46042;49.444;6.862;2023-04-01T00:33:12;97085.03;;;7.40;100.00
60170;BME280;46042;49.444;6.862;2023-04-01T00:35:39;97086.81;;;7.40;100.00
60170;BME280;46042;49.444;6.862;2023-04-01T00:38:05;97085.03;;;7.40;100.00
60170;BME280;46042;49.444;6.862;2023-04-01T00:42:59;97087.63;;;7.40;100.00
60170;BME280;46042;49.444;6.862;2023-04-01T00:45:41;97089.31;;;7.42;100.00
60170;BME280;46042;49.444;6.862;2023-04-01T00:48:20;97085.97;;;7.39;100.00
60170;BME280;46042;49.444;6.862;2023-04-01T00:50:52;97094.78;;;7.38;100.00
60170;BME280;46042;49.444;6.862;2023-04-01T00:53:21;97089.31;;;7.30;100.00
60170;BME280;46042;49.444;6.862;2023-04-01T00:56:24;97092.66;;;7.21;100.00
60170;BME280;46042;49.444;6.862;2023-04-01T00:59:06;97089.41;;;7.17;100.00
60170;BME280;46042;49.444;6.862;2023-04-01T01:01:35;97095.50;;;7.18;100.00
60170;BME280;46042;49.444;6.862;2023-04-01T01:04:02;97084.56;;;7.13;100.00
60170;BME280;46042;49.444;6.862;2023-04-01T01:06:38;97092.19;;;7.16;100.00
60170;BME280;46042;49.444;6.862;2023-04-01T01:12:03;97072.28;;;7.13;100.00
60170;BME280;46042;49.444;6.862;2023-04-01T01:14:48;97080.13;;;7.13;100.00
60170;BME280;46042;49.444;6.862;2023-04-01T01:28:47;97067.66;;;7.17;100.00
60170;BME280;46042;49.444;6.862;2023-04-01T01:31:23;97071.22;;;7.16;100.00
60170;BME280;46042;49.444;6.862;2023-04-01T01:36:55;97085.72;;;7.08;100.00
60170;BME280;46042;49.444;6.862;2023-04-01T01:39:26;97070.00;;;7.08;100.00
60170;BME280;46042;49.444;6.862;2023-04-01T01:41:55;97078.22;;;7.15;100.00
60170;BME280;46042;49.444;6.862;2023-04-01T01:44:23;97064.66;;;7.10;100.00
60170;BME280;46042;49.444;6.862;2023-04-01T01:46:52;97067.41;;;7.08;100.00
60170;BME280;46042;49.444;6.862;2023-04-01T01:49:19;97061.81;;;7.13;100.00
60170;BME280;46042;49.444;6.862;2023-04-01T01:51:46;97056.81;;;7.10;100.00
60170;BME280;46042;49.444;6.862;2023-04-01T01:54:15;97074.19;;;7.11;100.00
60170;BME280;46042;49.444;6.862;2023-04-01T01:56:45;97059.19;;;7.13;100.00
60170;BME280;46042;49.444;6.862;2023-04-01T01:59:14;97059.19;;;7.13;100.00
60170;BME280;46042;49.444;6.862;2023-04-01T02:01:45;97054.81;;;7.14;100.00
60170;BME280;46042;49.444;6.862;2023-04-01T02:04:14;97060.75;;;7.16;100.00
60170;BME280;46042;49.444;6.862;2023-04-01T02:06:46;97058.75;;;7.19;100.00
60170;BME280;46042;49.444;6.862;2023-04-01T02:09:14;97057.78;;;7.20;100.00
60170;BME280;46042;49.444;6.862;2023-04-01T02:11:54;97056.13;;;7.19;100.00
60170;BME280;46042;49.444;6.862;2023-04-01T02:14:25;97061.13;;;7.22;100.00
60170;BME280;46042;49.444;6.862;2023-04-01T02:17:07;97054.78;;;7.25;100.00
60170;BME280;46042;49.444;6.862;2023-04-01T02:19:43;97059.66;;;7.30;100.00
60170;BME280;46042;49.444;6.862;2023-04-01T02:22:15;97069.94;;;7.21;100.00
60170;BME280;46042;49.444;6.862;2023-04-01T02:24:43;97059.44;;;7.21;100.00
60170;BME280;46042;49.444;6.862;2023-04-01T02:27:12;97062.28;;;7.18;100.00
60170;BME280;46042;49.444;6.862;2023-04-01T02:29:38;97059.66;;;7.18;100.00
60170;BME280;46042;49.444;6.862;2023-04-01T02:32:06;97061.56;;;7.16;100.00
60170;BME280;46042;49.444;6.862;2023-04-01T02:34:34;97065.38;;;7.12;100.00
60170;BME280;46042;49.444;6.862;2023-04-01T02:37:01;97064.31;;;7.15;100.00
60170;BME280;46042;49.444;6.862;2023-04-01T02:39:28;97060.03;;;7.14;100.00
60170;BME280;46042;49.444;6.862;2023-04-01T02:41:54;97054.66;;;7.15;100.00
60170;BME280;46042;49.444;6.862;2023-04-01T02:44:21;97046.09;;;7.13;100.00
60170;BME280;46042;49.444;6.862;2023-04-01T02:46:48;97052.06;;;7.15;100.00
60170;BME280;46042;49.444;6.862;2023-04-01T02:49:15;97057.19;;;7.17;100.00
60170;BME280;46042;49.444;6.862;2023-04-01T02:51:42;97042.28;;;7.17;100.00
60170;BME280;46042;49.444;6.862;2023-04-01T02:54:09;97043.13;;;7.18;100.00
60170;BME280;46042;49.444;6.862;2023-04-01T02:56:35;97038.34;;;7.23;100.00
60170;BME280;46042;49.444;6.862;2023-04-01T02:59:02;97036.59;;;7.23;100.00
60170;BME280;46042;49.444;6.862;2023-04-01T03:01:29;97042.53;;;7.25;100.00
60170;BME280;46042;49.444;6.862;2023-04-01T03:03:56;97027.78;;;7.24;100.00
60170;BME280;46042;49.444;6.862;2023-04-01T03:06:22;97040.03;;;7.24;100.00
60170;BME280;46042;49.444;6.862;2023-04-01T03:08:49;97037.78;;;7.19;100.00
60170;BME280;46042;49.444;6.862;2023-04-01T03:11:15;97025.03;;;7.15;100.00
60170;BME280;46042;49.444;6.862;2023-04-01T03:13:42;97023.13;;;7.17;100.00
60170;BME280;46042;49.444;6.862;2023-04-01T03:16:09;97040.50;;;7.18;100.00
60170;BME280;46042;49.444;6.862;2023-04-01T03:18:36;97033.16;;;7.11;100.00
60170;BME280;46042;49.444;6.862;2023-04-01T03:21:32;97045.16;;;7.14;100.00
60170;BME280;46042;49.444;6.862;2023-04-01T03:23:59;97039.34;;;7.10;100.00
60170;BME280;46042;49.444;6.862;2023-04-01T03:26:25;97044.56;;;7.10;100.00
60170;BME280;46042;49.444;6.862;2023-04-01T03:28:53;97050.72;;;7.09;100.00
60170;BME280;46042;49.444;6.862;2023-04-01T03:31:21;97043.25;;;7.05;100.00
60170;BME280;46042;49.444;6.862;2023-04-01T03:33:49;97053.84;;;7.03;100.00
60170;BME280;46042;49.444;6.862;2023-04-01T03:36:16;97045.63;;;7.08;100.00
60170;BME280;46042;49.444;6.862;2023-04-01T03:38:43;97046.94;;;7.02;100.00
60170;BME280;46042;49.444;6.862;2023-04-01T03:41:15;97056.69;;;7.00;100.00
60170;BME280;46042;49.444;6.862;2023-04-01T03:43:43;97042.75;;;7.00;100.00
60170;BME280;46042;49.444;6.862;2023-04-01T03:46:10;97035.41;;;7.05;100.00
60170;BME280;46042;49.444;6.862;2023-04-01T03:48:37;97043.84;;;6.97;100.00
60170;BME280;46042;49.444;6.862;2023-04-01T03:51:07;97040.53;;;6.95;100.00
60170;BME280;46042;49.444;6.862;2023-04-01T03:53:34;97037.91;;;6.95;100.00
60170;BME280;46042;49.444;6.862;2023-04-01T03:56:05;97033.72;;;6.92;100.00
60170;BME280;46042;49.444;6.862;2023-04-01T03:58:32;97026.59;;;6.94;100.00
60170;BME280;46042;49.444;6.862;2023-04-01T04:00:59;97025.88;;;6.92;100.00
60170;BME280;46042;49.444;6.862;2023-04-01T04:03:26;97025.97;;;6.91;100.00
60170;BME280;46042;49.444;6.862;2023-04-01T04:05:53;97021.44;;;6.93;100.00
60170;BME280;46042;49.444;6.862;2023-04-01T04:08:20;97026.13;;;6.89;100.00
60170;BME280;46042;49.444;6.862;2023-04-01T04:10:54;97037.63;;;6.87;100.00
60170;BME280;46042;49.444;6.862;2023-04-01T04:13:21;97020.38;;;6.84;100.00
60170;BME280;46042;49.444;6.862;2023-04-01T04:15:48;97038.00;;;6.82;100.00
60170;BME280;46042;49.444;6.862;2023-04-01T04:18:14;97033.84;;;6.79;100.00
60170;BME280;46042;49.444;6.862;2023-04-01T04:20:45;97040.03;;;6.78;100.00
60170;BME280;46042;49.444;6.862;2023-04-01T04:23:13;97035.13;;;6.74;100.00
60170;BME280;46042;49.444;6.862;2023-04-01T04:25:40;97031.56;;;6.75;100.00
60170;BME280;46042;49.444;6.862;2023-04-01T04:28:06;97035.38;;;6.71;100.00
60170;BME280;46042;49.444;6.862;2023-04-01T04:30:33;97036.19;;;6.71;100.00
60170;BME280;46042;49.444;6.862;2023-04-01T04:33:00;97033.19;;;6.64;100.00
60170;BME280;46042;49.444;6.862;2023-04-01T04:35:27;97031.78;;;6.60;100.00
60170;BME280;46042;49.444;6.862;2023-04-01T04:37:53;97025.50;;;6.63;100.00
60170;BME280;46042;49.444;6.862;2023-04-01T04:40:20;97019.41;;;6.62;100.00
60170;BME280;46042;49.444;6.862;2023-04-01T04:42:47;97032.16;;;6.67;100.00
60170;BME280;46042;49.444;6.862;2023-04-01T04:45:13;97011.56;;;6.62;100.00
60170;BME280;46042;49.444;6.862;2023-04-01T04:47:40;97022.88;;;6.63;100.00
60170;BME280;46042;49.444;6.862;2023-04-01T04:50:08;97014.88;;;6.64;100.00
60170;BME280;46042;49.444;6.862;2023-04-01T04:52:35;97017.63;;;6.63;100.00
60170;BME280;46042;49.444;6.862;2023-04-01T04:55:01;97019.16;;;6.65;100.00
60170;BME280;46042;49.444;6.862;2023-04-01T04:57:28;97019.31;;;6.64;100.00
60170;BME280;46042;49.444;6.862;2023-04-01T04:59:55;97021.88;;;6.52;100.00
60170;BME280;46042;49.444;6.862;2023-04-01T05:02:21;97018.69;;;6.60;100.00
60170;BME280;46042;49.444;6.862;2023-04-01T05:04:48;97018.69;;;6.60;100.00
60170;BME280;46042;49.444;6.862;2023-04-01T05:07:15;97009.41;;;6.56;100.00
60170;BME280;46042;49.444;6.862;2023-04-01T05:09:42;97019.06;;;6.67;100.00
60170;BME280;46042;49.444;6.862;2023-04-01T05:12:08;97022.97;;;6.61;100.00
60170;BME280;46042;49.444;6.862;2023-04-01T05:14:35;97025.94;;;6.57;100.00
60170;BME280;46042;49.444;6.862;2023-04-01T05:17:02;97017.28;;;6.56;100.00
60170;BME280;46042;49.444;6.862;2023-04-01T05:19:29;97033.91;;;6.55;100.00
60170;BME280;46042;49.444;6.862;2023-04-01T05:21:55;97028.69;;;6.55;100.00
60170;BME280;46042;49.444;6.862;2023-04-01T05:24:22;97028.69;;;6.55;100.00
60170;BME280;46042;49.444;6.862;2023-04-01T05:26:49;97026.50;;;6.49;100.00
60170;BME280;46042;49.444;6.862;2023-04-01T05:29:15;97024.50;;;6.52;100.00
60170;BME280;46042;49.444;6.862;2023-04-01T05:31:42;97029.50;;;6.55;100.00
60170;BME280;46042;49.444;6.862;2023-04-01T05:34:08;97031.63;;;6.50;100.00
60170;BME280;46042;49.444;6.862;2023-04-01T05:36:35;97030.78;;;6.50;100.00
60170;BME280;46042;49.444;6.862;2023-04-01T05:39:02;97029.41;;;6.57;100.00
60170;BME280;46042;49.444;6.862;2023-04-01T05:41:29;97039.00;;;6.57;100.00
60170;BME280;46042;49.444;6.862;2023-04-01T05:43:56;97033.69;;;6.58;100.00
60170;BME280;46042;49.444;6.862;2023-04-01T05:46:23;97029.41;;;6.57;100.00
60170;BME280;46042;49.444;6.862;2023-04-01T05:48:49;97038.69;;;6.61;100.00
60170;BME280;46042;49.444;6.862;2023-04-01T05:51:16;97028.69;;;6.66;100.00
60170;BME280;46042;49.444;6.862;2023-04-01T05:53:43;97025.97;;;6.68;100.00
60170;BME280;46042;49.444;6.862;2023-04-01T05:56:10;97020.63;;;6.69;100.00
60170;BME280;46042;49.444;6.862;2023-04-01T05:58:37;97020.13;;;6.64;100.00
60170;BME280;46042;49.444;6.862;2023-04-01T06:01:09;97029.28;;;6.70;100.00
60170;BME280;46042;49.444;6.862;2023-04-01T06:03:41;97029.06;;;6.73;100.00
60170;BME280;46042;49.444;6.862;2023-04-01T06:06:14;97032.03;;;6.68;100.00
60170;BME280;46042;49.444;6.862;2023-04-01T06:08:42;97031.66;;;6.73;100.00
60170;BME280;46042;49.444;6.862;2023-04-01T06:14:12;97026.09;;;6.78;100.00
60170;BME280;46042;49.444;6.862;2023-04-01T06:19:50;97032.28;;;6.77;100.00
60170;BME280;46042;49.444;6.862;2023-04-01T06:35:40;97036.81;;;6.86;100.00
60170;BME280;46042;49.444;6.862;2023-04-01T06:40:49;97029.69;;;6.88;100.00
60170;BME280;46042;49.444;6.862;2023-04-01T06:43:39;97037.41;;;6.90;100.00
60170;BME280;46042;49.444;6.862;2023-04-01T06:54:49;97049.78;;;6.99;100.00
60170;BME280;46042;49.444;6.862;2023-04-01T06:59:47;97040.28;;;6.98;100.00
60170;BME280;46042;49.444;6.862;2023-04-01T07:05:04;97043.25;;;7.05;100.00
60170;BME280;46042;49.444;6.862;2023-04-01T07:07:47;97045.28;;;7.01;100.00
60170;BME280;46042;49.444;6.862;2023-04-01T07:13:16;97041.56;;;7.15;100.00
60170;BME280;46042;49.444;6.862;2023-04-01T07:15:54;97037.88;;;7.06;100.00
60170;BME280;46042;49.444;6.862;2023-04-01T07:18:37;97052.19;;;7.14;100.00
60170;BME280;46042;49.444;6.862;2023-04-01T07:21:13;97051.22;;;7.15;100.00
60170;BME280;46042;49.444;6.862;2023-04-01T07:23:45;97051.94;;;7.17;100.00
60170;BME280;46042;49.444;6.862;2023-04-01T07:26:24;97052.31;;;7.23;100.00
60170;BME280;46042;49.444;6.862;2023-04-01T07:28:52;97055.88;;;7.22;100.00
60170;BME280;46042;49.444;6.862;2023-04-01T07:37:26;97055.84;;;7.34;100.00
60170;BME280;46042;49.444;6.862;2023-04-01T07:45:21;97079.44;;;7.45;100.00
60170;BME280;46042;49.444;6.862;2023-04-01T07:56:12;97093.72;;;7.41;100.00
60170;BME280;46042;49.444;6.862;2023-04-01T07:58:54;97084.06;;;7.42;100.00
60170;BME280;46042;49.444;6.862;2023-04-01T08:04:17;97099.56;;;7.45;100.00
60170;BME280;46042;49.444;6.862;2023-04-01T08:07:07;97095.63;;;7.39;100.00
60170;BME280;46042;49.444;6.862;2023-04-01T08:15:26;97103.38;;;7.52;100.00
60170;BME280;46042;49.444;6.862;2023-04-01T08:18:08;97104.44;;;7.61;100.00
60170;BME280;46042;49.444;6.862;2023-04-01T08:20:59;97104.88;;;7.66;100.00
60170;BME280;46042;49.444;6.862;2023-04-01T08:23:44;97103.81;;;7.68;100.00
60170;BME280;46042;49.444;6.862;2023-04-01T08:26:18;97106.19;;;7.72;100.00
60170;BME280;46042;49.444;6.862;2023-04-01T08:28:57;97111.69;;;7.68;100.00
60170;BME280;46042;49.444;6.862;2023-04-01T08:31:37;97110.03;;;7.79;100.00
60170;BME280;46042;49.444;6.862;2023-04-01T08:34:10;97117.63;;;7.82;100.00
60170;BME280;46042;49.444;6.862;2023-04-01T08:36:45;97126.81;;;7.88;100.00
60170;BME280;46042;49.444;6.862;2023-04-01T08:39:18;97115.38;;;7.89;100.00
60170;BME280;46042;49.444;6.862;2023-04-01T08:42:01;97120.38;;;7.80;100.00
60170;BME280;46042;49.444;6.862;2023-04-01T08:47:36;97119.31;;;7.83;100.00
60170;BME280;46042;49.444;6.862;2023-04-01T08:56:12;97130.25;;;7.88;100.00
60170;BME280;46042;49.444;6.862;2023-04-01T08:58:57;97131.22;;;7.87;100.00
60170;BME280;46042;49.444;6.862;2023-04-01T09:22:46;97151.22;;;8.00;100.00
60170;BME280;46042;49.444;6.862;2023-04-01T09:25:22;97148.00;;;7.96;100.00
60170;BME280;46042;49.444;6.862;2023-04-01T09:30:47;97149.16;;;8.15;100.00
60170;BME280;46042;49.444;6.862;2023-04-01T09:39:34;97152.13;;;8.21;100.00
60170;BME280;46042;49.444;6.862;2023-04-01T09:44:57;97154.94;;;8.30;100.00
60170;BME280;46042;49.444;6.862;2023-04-01T09:50:25;97154.31;;;8.37;100.00
60170;BME280;46042;49.444;6.862;2023-04-01T10:01:39;97166.03;;;8.33;100.00
60170;BME280;46042;49.444;6.862;2023-04-01T10:10:15;97171.97;;;8.47;100.00
60170;BME280;46042;49.444;6.862;2023-04-01T10:21:37;97161.53;;;8.68;100.00
60170;BME280;46042;49.444;6.862;2023-04-01T10:27:10;97176.88;;;8.51;100.00
60170;BME280;46042;49.444;6.862;2023-04-01T10:32:15;97175.53;;;8.57;100.00
60170;BME280;46042;49.444;6.862;2023-04-01T11:22:45;97192.97;;;8.79;100.00
60170;BME280;46042;49.444;6.862;2023-04-01T11:25:28;97207.06;;;8.78;100.00
60170;BME280;46042;49.444;6.862;2023-04-01T11:33:36;97207.47;;;8.74;100.00
60170;BME280;46042;49.444;6.862;2023-04-01T11:39:29;97196.41;;;8.91;100.00
60170;BME280;46042;49.444;6.862;2023-04-01T11:44:19;97198.00;;;9.25;100.00
60170;BME280;46042;49.444;6.862;2023-04-01T11:46:52;97198.59;;;9.29;100.00
60170;BME280;46042;49.444;6.862;2023-04-01T12:09:24;97232.13;;;8.82;100.00
60170;BME280;46042;49.444;6.862;2023-04-01T12:15:28;97244.75;;;8.89;100.00
60170;BME280;46042;49.444;6.862;2023-04-01T12:17:59;97244.75;;;8.89;100.00
60170;BME280;46042;49.444;6.862;2023-04-01T12:20:43;97246.16;;;8.93;100.00
60170;BME280;46042;49.444;6.862;2023-04-01T12:37:17;97251.72;;;9.32;100.00
60170;BME280;46042;49.444;6.862;2023-04-01T12:40:06;97249.00;;;9.22;100.00
60170;BME280;46042;49.444;6.862;2023-04-01T12:42:52;97257.94;;;9.10;100.00
60170;BME280;46042;49.444;6.862;2023-04-01T12:45:57;97270.56;;;9.16;100.00
60170;BME280;46042;49.444;6.862;2023-04-01T12:56:46;97277.34;;;9.19;100.00
60170;BME280;46042;49.444;6.862;2023-04-01T13:07:35;97281.34;;;9.02;100.00
60170;BME280;46042;49.444;6.862;2023-04-01T13:15:28;97293.34;;;9.16;100.00
60170;BME280;46042;49.444;6.862;2023-04-01T13:23:56;97305.34;;;8.97;100.00
60170;BME280;46042;49.444;6.862;2023-04-01T13:26:33;97308.22;;;8.94;100.00
60170;BME280;46042;49.444;6.862;2023-04-01T13:29:18;97302.28;;;8.80;100.00
60170;BME280;46042;49.444;6.862;2023-04-01T13:34:25;97302.06;;;8.84;100.00
60170;BME280;46042;49.444;6.862;2023-04-01T13:42:14;97303.50;;;8.88;100.00
60170;BME280;46042;49.444;6.862;2023-04-01T13:56:27;97305.53;;;8.84;100.00
60170;BME280;46042;49.444;6.862;2023-04-01T13:59:13;97320.94;;;8.77;100.00
60170;BME280;46042;49.444;6.862;2023-04-01T14:04:35;97322.69;;;8.88;100.00
60170;BME280;46042;49.444;6.862;2023-04-01T14:07:37;97331.88;;;8.94;100.00
60170;BME280;46042;49.444;6.862;2023-04-01T14:10:43;97330.13;;;8.83;100.00
60170;BME280;46042;49.444;6.862;2023-04-01T14:13:23;97326.88;;;8.79;100.00
60170;BME280;46042;49.444;6.862;2023-04-01T14:18:58;97326.31;;;8.64;100.00
60170;BME280;46042;49.444;6.862;2023-04-01T14:38:02;97351.13;;;8.37;100.00
60170;BME280;46042;49.444;6.862;2023-04-01T14:49:15;97353.88;;;8.36;100.00
60170;BME280;46042;49.444;6.862;2023-04-01T14:51:45;97369.50;;;8.37;100.00
60170;BME280;46042;49.444;6.862;2023-04-01T14:54:29;97353.88;;;8.36;100.00
60170;BME280;46042;49.444;6.862;2023-04-01T14:57:20;97365.19;;;8.36;100.00
60170;BME280;46042;49.444;6.862;2023-04-01T15:02:46;97369.03;;;8.55;100.00
60170;BME280;46042;49.444;6.862;2023-04-01T15:05:48;97368.69;;;8.48;100.00
60170;BME280;46042;49.444;6.862;2023-04-01T15:08:29;97371.31;;;8.60;100.00
60170;BME280;46042;49.444;6.862;2023-04-01T15:21:44;97382.59;;;8.37;100.00
60170;BME280;46042;49.444;6.862;2023-04-01T15:24:30;97377.97;;;8.41;100.00
60170;BME280;46042;49.444;6.862;2023-04-01T15:37:56;97390.50;;;8.49;100.00
60170;BME280;46042;49.444;6.862;2023-04-01T15:40:43;97401.63;;;8.52;100.00
60170;BME280;46042;49.444;6.862;2023-04-01T15:43:30;97402.66;;;8.38;100.00
60170;BME280;46042;49.444;6.862;2023-04-01T15:57:15;97407.78;;;8.40;100.00
60170;BME280;46042;49.444;6.862;2023-04-01T16:03:17;97408.72;;;8.28;100.00
60170;BME280;46042;49.444;6.862;2023-04-01T16:28:25;97424.34;;;8.29;100.00
60170;BME280;46042;49.444;6.862;2023-04-01T16:36:08;97417.41;;;8.17;100.00
60170;BME280;46042;49.444;6.862;2023-04-01T16:38:46;97433.03;;;8.18;100.00
60170;BME280;46042;49.444;6.862;2023-04-01T16:41:57;97434.25;;;8.14;100.00
60170;BME280;46042;49.444;6.862;2023-04-01T16:44:20;97431.63;;;8.14;100.00
60170;BME280;46042;49.444;6.862;2023-04-01T16:46:58;97435.91;;;8.15;100.00
60170;BME280;46042;49.444;6.862;2023-04-01T16:49:39;97440.88;;;8.07;100.00
60170;BME280;46042;49.444;6.862;2023-04-01T16:54:36;97439.53;;;8.01;100.00
60170;BME280;46042;49.444;6.862;2023-04-01T17:00:02;97446.88;;;7.85;100.00
60170;BME280;46042;49.444;6.862;2023-04-01T17:02:37;97446.00;;;7.73;100.00
60170;BME280;46042;49.444;6.862;2023-04-01T17:05:08;97447.91;;;7.71;100.00
60170;BME280;46042;49.444;6.862;2023-04-01T17:08:01;97443.16;;;7.76;100.00
60170;BME280;46042;49.444;6.862;2023-04-01T17:10:50;97452.09;;;7.73;100.00
60170;BME280;46042;49.444;6.862;2023-04-01T17:16:11;97456.50;;;7.73;100.00
60170;BME280;46042;49.444;6.862;2023-04-01T17:21:54;97452.88;;;7.62;100.00
60170;BME280;46042;49.444;6.862;2023-04-01T17:27:37;97462.06;;;7.68;100.00
60170;BME280;46042;49.444;6.862;2023-04-01T17:35:33;97469.75;;;7.58;100.00
60170;BME280;46042;49.444;6.862;2023-04-01T17:41:06;97472.63;;;7.55;100.00
60170;BME280;46042;49.444;6.862;2023-04-01T17:43:54;97471.78;;;7.54;100.00
60170;BME280;46042;49.444;6.862;2023-04-01T17:52:20;97480.25;;;7.58;100.00
60170;BME280;46042;49.444;6.862;2023-04-01T18:14:22;97501.22;;;7.58;100.00
60170;BME280;46042;49.444;6.862;2023-04-01T18:17:01;97520.63;;;7.56;100.00
60170;BME280;46042;49.444;6.862;2023-04-01T18:27:22;97526.19;;;7.51;100.00
60170;BME280;46042;49.444;6.862;2023-04-01T18:29:54;97531.84;;;7.58;100.00
60170;BME280;46042;49.444;6.862;2023-04-01T18:34:53;97535.06;;;7.61;100.00
60170;BME280;46042;49.444;6.862;2023-04-01T18:40:10;97540.19;;;7.63;100.00
60170;BME280;46042;49.444;6.862;2023-04-01T18:43:39;97549.47;;;7.56;100.00
60170;BME280;46042;49.444;6.862;2023-04-01T18:45:58;97554.91;;;7.52;100.00
60170;BME280;46042;49.444;6.862;2023-04-01T18:48:42;97552.81;;;7.58;100.00
60170;BME280;46042;49.444;6.862;2023-04-01T18:54:07;97559.72;;;7.59;100.00
60170;BME280;46042;49.444;6.862;2023-04-01T18:56:42;97560.13;;;7.52;100.00
60170;BME280;46042;49.444;6.862;2023-04-01T19:04:21;97569.28;;;7.47;100.00
60170;BME280;46042;49.444;6.862;2023-04-01T19:07:19;97571.47;;;7.53;100.00
60170;BME280;46042;49.444;6.862;2023-04-01T19:09:48;97573.91;;;7.43;100.00
60170;BME280;46042;49.444;6.862;2023-04-01T19:12:37;97579.88;;;7.45;100.00
60170;BME280;46042;49.444;6.862;2023-04-01T19:15:19;97590.44;;;7.44;100.00
60170;BME280;46042;49.444;6.862;2023-04-01T19:18:52;97580.81;;;7.44;100.00
60170;BME280;46042;49.444;6.862;2023-04-01T19:21:33;97586.16;;;7.43;100.00
60170;BME280;46042;49.444;6.862;2023-04-01T19:23:53;97596.13;;;7.37;100.00
60170;BME280;46042;49.444;6.862;2023-04-01T19:26:33;97594.97;;;7.42;100.00
60170;BME280;46042;49.444;6.862;2023-04-01T19:36:56;97602.09;;;7.39;100.00
60170;BME280;46042;49.444;6.862;2023-04-01T19:48:35;97614.25;;;7.40;100.00
60170;BME280;46042;49.444;6.862;2023-04-01T19:51:37;97621.16;;;7.42;100.00
60170;BME280;46042;49.444;6.862;2023-04-01T19:57:00;97637.00;;;7.40;100.00
60170;BME280;46042;49.444;6.862;2023-04-01T19:59:56;97636.78;;;7.43;100.00
60170;BME280;46042;49.444;6.862;2023-04-01T20:05:46;97631.34;;;7.46;100.00
60170;BME280;46042;49.444;6.862;2023-04-01T20:11:18;97642.13;;;7.42;100.00
60170;BME280;46042;49.444;6.862;2023-04-01T20:14:26;97651.66;;;7.43;100.00
60170;BME280;46042;49.444;6.862;2023-04-01T20:17:15;97656.91;;;7.43;100.00
60170;BME280;46042;49.444;6.862;2023-04-01T20:19:55;97657.13;;;7.39;100.00
60170;BME280;46042;49.444;6.862;2023-04-01T20:25:17;97664.03;;;7.40;100.00
60170;BME280;46042;49.444;6.862;2023-04-01T20:27:50;97668.44;;;7.40;100.00
60170;BME280;46042;49.444;6.862;2023-04-01T20:38:29;97682.69;;;7.36;100.00
60170;BME280;46042;49.444;6.862;2023-04-01T20:46:43;97682.59;;;7.37;100.00
60170;BME280;46042;49.444;6.862;2023-04-01T20:51:54;97687.41;;;7.31;100.00
60170;BME280;46042;49.444;6.862;2023-04-01T20:57:44;97691.63;;;7.33;100.00
60170;BME280;46042;49.444;6.862;2023-04-01T21:04:08;97703.34;;;7.28;100.00
60170;BME280;46042;49.444;6.862;2023-04-01T21:09:34;97707.13;;;7.23;100.00
60170;BME280;46042;49.444;6.862;2023-04-01T21:23:55;97715.91;;;7.22;100.00
60170;BME280;46042;49.444;6.862;2023-04-01T21:29:30;97724.16;;;7.16;100.00
60170;BME280;46042;49.444;6.862;2023-04-01T21:41:03;97740.81;;;7.15;100.00
60170;BME280;46042;49.444;6.862;2023-04-01T21:57:37;97738.00;;;7.18;100.00
60170;BME280;46042;49.444;6.862;2023-04-01T22:00:32;97745.69;;;7.21;100.00
60170;BME280;46042;49.444;6.862;2023-04-01T22:03:28;97742.72;;;7.26;100.00
60170;BME280;46042;49.444;6.862;2023-04-01T22:11:38;97737.91;;;7.20;100.00
60170;BME280;46042;49.444;6.862;2023-04-01T22:14:26;97751.00;;;7.20;100.00
60170;BME280;46042;49.444;6.862;2023-04-01T22:19:59;97751.94;;;7.19;100.00
60170;BME280;46042;49.444;6.862;2023-04-01T22:22:48;97747.34;;;7.22;100.00
60170;BME280;46042;49.444;6.862;2023-04-01T22:27:58;97748.28;;;7.21;100.00
60170;BME280;46042;49.444;6.862;2023-04-01T22:30:33;97749.03;;;7.23;100.00
60170;BME280;46042;49.444;6.862;2023-04-01T22:35:43;97751.72;;;7.22;100.00
60170;BME280;46042;49.444;6.862;2023-04-01T22:38:23;97757.91;;;7.21;100.00
60170;BME280;46042;49.444;6.862;2023-04-01T22:41:05;97749.41;;;7.17;100.00
60170;BME280;46042;49.444;6.862;2023-04-01T22:43:38;97757.47;;;7.14;100.00
60170;BME280;46042;49.444;6.862;2023-04-01T22:46:18;97753.47;;;7.08;100.00
60170;BME280;46042;49.444;6.862;2023-04-01T22:49:08;97753.69;;;7.05;100.00
60170;BME280;46042;49.444;6.862;2023-04-01T22:51:57;97751.19;;;7.04;100.00
60170;BME280;46042;49.444;6.862;2023-04-01T23:05:41;97767.72;;;7.04;100.00
60170;BME280;46042;49.444;6.862;2023-04-01T23:11:18;97770.13;;;7.07;100.00
60170;BME280;46042;49.444;6.862;2023-04-01T23:16:32;97777.25;;;7.05;100.00
60170;BME280;46042;49.444;6.862;2023-04-01T23:21:44;97778.84;;;7.08;100.00
60170;BME280;46042;49.444;6.862;2023-04-01T23:24:31;97783.97;;;7.09;100.00
60170;BME280;46042;49.444;6.862;2023-04-01T23:27:08;97782.50;;;7.05;100.00
60170;BME280;46042;49.444;6.862;2023-04-01T23:29:39;97783.44;;;7.04;100.00
60170;BME280;46042;49.444;6.862;2023-04-01T23:32:17;97783.34;;;7.06;100.00
60170;BME280;46042;49.444;6.862;2023-04-01T23:34:51;97798.94;;;7.07;100.00